Scranton, South Carolina
Current Conditions -  °F | °C
As of 9:15 AM on Thursday 27 Nov 2014 (Local Time) from KCKI Reporting Station
Clear Clear  
Wind Chill: 50°   Ceiling: Unl
Heat Index: 50°   Visibility: 10mi
Dew Point: 37°   Wind: 13mph
Humidity: 62%   Direction: 240°WSW
Pressure: 30.09"   Gusts: 21mph
Location:  33.92°N, 79.74°W
Report Text: KCKI 271415Z AUTO 24011G18KT 10SM CLR 10/03 A3009 RMK AO2
Loading
Personal Weather Stations






























Interactive Weather Map New forecast layout! Learn more

10-Day Weather Forecast

Advertisements
Track Severe Weather on mobile